createdAt,value
2019-04-10T00:02:01.413Z,9.40
2019-04-10T00:05:07.626Z,9.45
2019-04-10T00:08:12.821Z,9.37
2019-04-10T00:11:18.610Z,9.34
2019-04-10T00:14:24.106Z,9.33
2019-04-10T00:17:29.361Z,9.30
2019-04-10T00:20:34.537Z,9.39
2019-04-10T00:23:41.560Z,9.43
2019-04-10T00:26:46.808Z,9.51
2019-04-10T00:29:52.407Z,9.55
2019-04-10T00:32:58.522Z,9.51
2019-04-10T00:36:03.838Z,9.49
2019-04-10T00:39:09.101Z,9.67
2019-04-10T00:42:14.465Z,9.59
2019-04-10T00:45:19.781Z,9.65
2019-04-10T00:48:25.960Z,9.52
2019-04-10T00:51:31.402Z,9.45
2019-04-10T00:54:37.255Z,9.56
2019-04-10T00:57:42.581Z,9.84
2019-04-10T01:00:47.751Z,9.83
2019-04-10T01:03:53.967Z,9.65
2019-04-10T01:07:00.160Z,9.76
2019-04-10T01:10:08.192Z,9.65
2019-04-10T01:13:13.553Z,9.61
2019-04-10T01:16:19.534Z,9.54
2019-04-10T01:19:25.893Z,9.66
2019-04-10T01:22:31.213Z,9.62
2019-04-10T01:25:36.785Z,9.61
2019-04-10T01:28:42.127Z,9.72
2019-04-10T01:31:47.690Z,9.59
2019-04-10T01:34:53.840Z,9.50
2019-04-10T01:38:02.003Z,9.44
2019-04-10T01:41:06.471Z,9.43
2019-04-10T01:44:11.623Z,9.43
2019-04-10T01:47:17.233Z,9.34
2019-04-10T01:50:22.629Z,9.30
2019-04-10T01:53:28.033Z,9.54
2019-04-10T01:56:36.376Z,9.84
2019-04-10T01:59:42.429Z,9.69
2019-04-10T02:02:51.536Z,9.52
2019-04-10T02:05:56.861Z,9.59
2019-04-10T02:09:02.605Z,9.73
2019-04-10T02:12:08.814Z,9.83
2019-04-10T02:15:15.837Z,9.56
2019-04-10T02:18:21.449Z,9.53
2019-04-10T02:21:27.552Z,9.58
2019-04-10T02:24:33.386Z,9.71
2019-04-10T02:27:38.729Z,9.45
2019-04-10T02:30:43.968Z,9.32
2019-04-10T02:33:49.684Z,9.44
2019-04-10T02:36:55.334Z,9.66
2019-04-10T02:40:02.838Z,9.56
2019-04-10T02:43:08.463Z,9.56
2019-04-10T02:46:15.572Z,9.56
2019-04-10T02:49:22.230Z,9.42
2019-04-10T02:52:28.411Z,9.38
2019-04-10T02:55:33.958Z,9.52
2019-04-10T02:58:40.665Z,9.50
2019-04-10T03:01:47.315Z,9.52
2019-04-10T03:04:53.278Z,9.33
2019-04-10T03:08:00.315Z,9.25
2019-04-10T03:11:10.955Z,9.36
2019-04-10T03:14:14.783Z,9.36
2019-04-10T03:17:20.110Z,9.23
2019-04-10T03:20:26.556Z,9.35
2019-04-10T03:23:31.821Z,9.55
2019-04-10T03:26:37.409Z,9.44
2019-04-10T03:29:42.723Z,9.22
2019-04-10T03:33:06.405Z,9.13
2019-04-10T03:36:09.918Z,9.18
2019-04-10T03:39:15.384Z,9.31
2019-04-10T03:42:21.049Z,9.36
2019-04-10T03:45:26.513Z,9.18
2019-04-10T03:48:31.729Z,9.22
2019-04-10T03:51:36.930Z,9.24
2019-04-10T03:54:42.034Z,9.25
2019-04-10T03:57:47.121Z,9.24
2019-04-10T04:00:52.410Z,9.13
2019-04-10T04:03:57.633Z,9.09
2019-04-10T04:07:02.810Z,9.33
2019-04-10T04:10:09.275Z,9.46
2019-04-10T04:13:15.297Z,9.31
2019-04-10T04:16:20.563Z,9.17
2019-04-10T04:19:26.144Z,9.17
2019-04-10T04:22:32.617Z,9.00
2019-04-10T04:25:38.689Z,9.03
2019-04-10T04:28:44.049Z,8.96
2019-04-10T04:34:52.702Z,8.87
2019-04-10T04:37:58.337Z,8.79
2019-04-10T04:41:03.722Z,8.80
2019-04-10T04:44:08.817Z,8.91
2019-04-10T04:47:13.967Z,8.80
2019-04-10T04:50:20.249Z,8.75
2019-04-10T04:53:26.058Z,8.85
2019-04-10T04:56:31.715Z,8.91
2019-04-10T04:59:37.003Z,8.75
2019-04-10T05:02:42.686Z,8.72
2019-04-10T05:05:47.989Z,8.74
2019-04-10T05:08:53.049Z,8.86
2019-04-10T05:11:58.593Z,8.80
2019-04-10T05:15:04.468Z,8.63
2019-04-10T05:18:10.420Z,8.66
2019-04-10T05:21:16.966Z,8.62
2019-04-10T05:24:22.359Z,8.52
2019-04-10T05:27:27.709Z,8.61
2019-04-10T05:30:34.017Z,8.47
2019-04-10T05:33:39.088Z,8.42
2019-04-10T05:36:44.181Z,8.36
2019-04-10T05:39:51.950Z,8.24
2019-04-10T05:42:57.267Z,8.28
2019-04-10T05:46:02.839Z,8.28
2019-04-10T05:49:08.709Z,8.22
2019-04-10T05:52:14.714Z,8.35
2019-04-10T05:55:20.446Z,8.18
2019-04-10T05:58:25.879Z,8.18
2019-04-10T06:01:35.904Z,8.22
2019-04-10T06:04:37.910Z,8.12
2019-04-10T06:07:43.542Z,8.14
2019-04-10T06:10:49.887Z,8.13
2019-04-10T06:13:55.083Z,8.38
2019-04-10T06:17:02.781Z,8.11
2019-04-10T06:20:07.524Z,8.12
2019-04-10T06:23:12.746Z,8.10
2019-04-10T06:26:17.923Z,7.98
2019-04-10T06:29:23.294Z,7.96
2019-04-10T06:32:29.557Z,8.02
2019-04-10T06:35:35.622Z,8.05
2019-04-10T06:38:41.186Z,8.05
2019-04-10T06:41:46.810Z,8.09
2019-04-10T06:44:53.063Z,8.06
2019-04-10T06:47:58.494Z,8.06
2019-04-10T06:51:04.019Z,8.22
2019-04-10T06:54:11.308Z,8.29
2019-04-10T06:57:16.711Z,8.39
2019-04-10T07:00:23.009Z,8.36
2019-04-10T07:03:44.836Z,8.21
2019-04-10T07:06:47.190Z,8.27
2019-04-10T07:09:43.743Z,8.45
2019-04-10T07:12:48.987Z,8.48
2019-04-10T07:15:57.669Z,8.52
2019-04-10T07:19:04.343Z,8.62
2019-04-10T07:22:12.284Z,8.55
2019-04-10T07:25:15.754Z,8.75
2019-04-10T07:28:21.553Z,8.74
2019-04-10T07:31:27.609Z,8.79
2019-04-10T07:34:34.047Z,8.79
2019-04-10T07:37:40.121Z,8.85
2019-04-10T07:40:46.929Z,9.21
2019-04-10T07:43:55.094Z,9.43
2019-04-10T07:47:00.706Z,9.58
2019-04-10T07:50:08.617Z,9.69
2019-04-10T07:53:13.142Z,10.08
2019-04-10T07:56:20.778Z,10.35
2019-04-10T07:59:25.190Z,10.05
2019-04-10T08:02:30.317Z,10.54
2019-04-10T08:05:35.511Z,10.34
2019-04-10T08:08:40.689Z,10.43
2019-04-10T08:11:46.853Z,10.96
2019-04-10T08:14:52.125Z,10.94
2019-04-10T08:17:58.296Z,11.28
2019-04-10T08:21:03.661Z,11.26
2019-04-10T08:24:09.456Z,11.63
2019-04-10T08:27:21.367Z,11.04
2019-04-10T08:30:27.889Z,11.30
2019-04-10T08:33:35.034Z,11.72
2019-04-10T08:36:40.219Z,11.19
2019-04-10T08:39:47.664Z,11.44
2019-04-10T08:42:52.467Z,11.74
2019-04-10T08:45:57.613Z,11.84
2019-04-10T08:49:03.535Z,11.70
2019-04-10T08:52:08.860Z,11.69
2019-04-10T08:55:14.092Z,11.52
2019-04-10T08:58:19.240Z,11.77
2019-04-10T09:01:25.472Z,11.58
2019-04-10T09:04:31.195Z,11.63
2019-04-10T09:07:36.345Z,11.65
2019-04-10T09:10:42.709Z,11.78
2019-04-10T09:13:48.595Z,11.74
2019-04-10T09:16:55.114Z,11.43
2019-04-10T09:20:00.646Z,11.53
2019-04-10T09:26:13.442Z,11.29
2019-04-10T09:29:21.753Z,11.32
2019-04-10T09:32:26.450Z,11.35
2019-04-10T09:35:32.829Z,11.62
2019-04-10T09:38:38.953Z,11.75
2019-04-10T09:41:44.254Z,12.01
2019-04-10T09:44:50.625Z,12.52
2019-04-10T09:47:55.851Z,12.87
2019-04-10T09:51:01.363Z,13.00
2019-04-10T09:54:07.863Z,13.10
2019-04-10T09:57:13.084Z,12.97
2019-04-10T10:00:19.180Z,13.08
2019-04-10T10:03:24.602Z,13.56
2019-04-10T10:06:34.507Z,13.83
2019-04-10T10:09:36.891Z,14.32
2019-04-10T10:12:42.898Z,14.25
2019-04-10T10:15:48.107Z,13.84
2019-04-10T10:18:53.994Z,14.17
2019-04-10T10:22:01.845Z,14.82
2019-04-10T10:25:07.065Z,14.39
2019-04-10T10:28:13.216Z,14.73
2019-04-10T10:31:18.398Z,15.13
2019-04-10T10:34:23.780Z,14.90
2019-04-10T10:37:29.087Z,15.31
2019-04-10T10:40:34.256Z,14.64
2019-04-10T10:43:40.396Z,14.93
2019-04-10T10:46:45.532Z,15.03
2019-04-10T10:49:50.853Z,15.01
2019-04-10T10:52:55.988Z,14.78
2019-04-10T10:56:02.222Z,14.49
2019-04-10T10:59:09.231Z,14.70
2019-04-10T11:02:14.482Z,14.58
2019-04-10T11:05:19.671Z,14.92
2019-04-10T11:08:24.884Z,14.82
2019-04-10T11:11:30.765Z,14.73
2019-04-10T11:14:37.219Z,15.11
2019-04-10T11:17:47.677Z,15.30
2019-04-10T11:20:58.127Z,15.25
2019-04-10T11:24:01.014Z,15.40
2019-04-10T11:27:06.314Z,15.34
2019-04-10T11:30:13.662Z,15.59
2019-04-10T11:33:18.978Z,15.55
2019-04-10T11:36:24.164Z,15.67
2019-04-10T11:39:33.067Z,15.51
2019-04-10T11:42:37.225Z,15.50
2019-04-10T11:45:46.533Z,15.62
2019-04-10T11:48:51.647Z,15.30
2019-04-10T11:52:00.955Z,15.53
2019-04-10T11:55:12.733Z,15.64
2019-04-10T11:58:14.567Z,16.25
2019-04-10T12:01:22.836Z,16.70
2019-04-10T12:04:29.533Z,16.20
2019-04-10T12:08:00.179Z,16.02
2019-04-10T12:13:48.276Z,16.25
2019-04-10T12:16:53.653Z,16.64
2019-04-10T12:20:00.548Z,16.54
2019-04-10T12:23:06.954Z,16.45
2019-04-10T12:26:12.094Z,16.14
2019-04-10T12:29:18.283Z,15.91
2019-04-10T12:32:23.551Z,15.97
2019-04-10T12:35:29.697Z,15.93
2019-04-10T12:38:35.997Z,16.00
2019-04-10T12:41:41.612Z,15.87
2019-04-10T12:44:47.166Z,15.88
2019-04-10T12:47:52.802Z,16.25
2019-04-10T12:50:59.244Z,15.89
2019-04-10T12:54:04.666Z,15.88
2019-04-10T12:57:11.001Z,15.77
2019-04-10T13:00:23.721Z,16.14
2019-04-10T13:03:29.441Z,16.11
2019-04-10T13:06:34.781Z,16.09
2019-04-10T13:09:40.218Z,16.62
2019-04-10T13:12:45.530Z,16.70
2019-04-10T13:15:51.910Z,16.58
2019-04-10T13:18:57.215Z,16.91
2019-04-10T13:22:02.330Z,16.40
2019-04-10T13:25:08.241Z,16.51
2019-04-10T13:28:15.127Z,16.56
2019-04-10T13:31:21.366Z,16.59
2019-04-10T13:34:27.009Z,16.24
2019-04-10T13:37:32.275Z,16.38
2019-04-10T13:40:37.572Z,16.29
2019-04-10T13:43:42.707Z,16.74
2019-04-10T13:46:48.978Z,16.67
2019-04-10T13:49:54.573Z,16.46
2019-04-10T13:52:59.869Z,16.53
2019-04-10T13:56:06.581Z,16.09
2019-04-10T13:59:13.832Z,16.10
2019-04-10T14:02:32.258Z,16.16
2019-04-10T14:05:37.548Z,16.50
2019-04-10T14:09:03.429Z,16.17
2019-04-10T14:11:49.557Z,16.29
2019-04-10T14:14:55.159Z,16.50
2019-04-10T14:18:00.451Z,16.23
2019-04-10T14:21:11.047Z,16.51
2019-04-10T14:24:13.202Z,16.39
2019-04-10T14:27:22.856Z,16.31
2019-04-10T14:30:35.535Z,16.16
2019-04-10T14:33:41.046Z,16.36
2019-04-10T14:36:46.420Z,16.46
2019-04-10T14:39:52.566Z,16.26
2019-04-10T14:42:58.078Z,16.54
2019-04-10T14:46:04.338Z,16.30
2019-04-10T14:49:09.725Z,16.23
2019-04-10T14:52:14.928Z,16.14
2019-04-10T14:55:21.929Z,16.48
2019-04-10T14:58:29.667Z,16.20
2019-04-10T15:01:34.433Z,16.31
2019-04-10T15:04:39.644Z,16.42
2019-04-10T15:07:44.879Z,16.19
2019-04-10T15:10:49.980Z,16.05
2019-04-10T15:13:55.290Z,15.75
2019-04-10T15:17:04.408Z,15.72
2019-04-10T15:20:07.707Z,15.67
2019-04-10T15:23:12.888Z,15.72
2019-04-10T15:26:18.157Z,15.61
2019-04-10T15:29:24.605Z,15.69
2019-04-10T15:32:29.960Z,15.44
2019-04-10T15:35:35.222Z,15.48
2019-04-10T15:38:40.651Z,15.44
2019-04-10T15:41:45.755Z,15.51
2019-04-10T15:44:51.259Z,15.48
2019-04-10T15:47:58.621Z,15.18
2019-04-10T15:51:03.644Z,15.26
2019-04-10T15:54:09.724Z,14.87
2019-04-10T15:57:16.309Z,14.81
2019-04-10T16:00:21.668Z,14.90
2019-04-10T16:03:26.829Z,14.93
2019-04-10T16:06:32.110Z,15.05
2019-04-10T16:09:46.462Z,14.73
2019-04-10T16:12:45.577Z,14.57
2019-04-10T16:15:51.252Z,14.55
2019-04-10T16:19:07.688Z,14.35
2019-04-10T16:22:19.503Z,14.39
2019-04-10T16:25:29.928Z,14.16
2019-04-10T16:28:35.937Z,14.12
2019-04-10T16:31:41.067Z,14.19
2019-04-10T16:34:47.104Z,13.94
2019-04-10T16:37:52.655Z,14.00
2019-04-10T16:40:58.401Z,13.88
2019-04-10T16:44:04.629Z,13.76
2019-04-10T16:47:10.021Z,13.75
2019-04-10T16:50:15.512Z,13.69
2019-04-10T16:53:20.832Z,13.73
2019-04-10T16:56:26.056Z,13.59
2019-04-10T16:59:32.065Z,13.72
2019-04-10T17:02:37.516Z,13.68
2019-04-10T17:05:43.788Z,13.60
2019-04-10T17:08:49.293Z,13.69
2019-04-10T17:11:56.350Z,13.49
2019-04-10T17:15:01.978Z,13.27
2019-04-10T17:18:08.613Z,13.12
2019-04-10T17:21:15.102Z,13.15
2019-04-10T17:24:20.817Z,12.97
2019-04-10T17:27:26.272Z,13.07
2019-04-10T17:30:31.789Z,12.97
2019-04-10T17:33:38.315Z,12.77
2019-04-10T17:36:43.624Z,12.75
2019-04-10T17:39:49.393Z,12.63
2019-04-10T17:42:54.905Z,12.58
2019-04-10T17:46:00.798Z,12.43
2019-04-10T17:49:07.277Z,12.35
2019-04-10T17:52:14.458Z,12.25
2019-04-10T17:55:20.691Z,12.06
2019-04-10T17:58:25.918Z,12.06
2019-04-10T18:01:32.674Z,11.99
2019-04-10T18:04:38.327Z,11.85
2019-04-10T18:07:43.986Z,11.82
2019-04-10T18:10:52.705Z,11.73
2019-04-10T18:13:56.556Z,11.61
2019-04-10T18:17:02.520Z,11.46
2019-04-10T18:20:08.409Z,11.44
2019-04-10T18:23:13.707Z,11.27
2019-04-10T18:26:20.615Z,11.10
2019-04-10T18:29:25.714Z,10.95
2019-04-10T18:32:31.795Z,10.89
2019-04-10T18:35:38.689Z,10.80
2019-04-10T18:38:43.926Z,10.94
2019-04-10T18:41:49.152Z,10.81
2019-04-10T18:44:55.401Z,10.82
2019-04-10T18:48:00.710Z,10.77
2019-04-10T18:51:07.889Z,10.73
2019-04-10T18:54:12.723Z,10.64
2019-04-10T18:57:18.046Z,10.53
2019-04-10T19:00:41.284Z,10.33
2019-04-10T19:04:08.308Z,10.26
2019-04-10T19:07:13.559Z,10.10
2019-04-10T19:10:19.853Z,9.96
2019-04-10T19:13:26.633Z,9.90
2019-04-10T19:16:33.112Z,9.89
2019-04-10T19:19:42.168Z,9.80
2019-04-10T19:22:46.591Z,9.76
2019-04-10T19:25:51.959Z,9.48
2019-04-10T19:28:57.227Z,9.51
2019-04-10T19:32:04.961Z,9.42
2019-04-10T19:35:12.920Z,9.32
2019-04-10T19:38:17.583Z,9.26
2019-04-10T19:41:29.683Z,9.26
2019-04-10T19:44:30.785Z,9.10
2019-04-10T19:47:36.724Z,9.04
2019-04-10T19:50:43.701Z,8.93
2019-04-10T19:53:49.253Z,8.76
2019-04-10T19:56:55.053Z,8.83
2019-04-10T20:00:00.477Z,8.77
2019-04-10T20:03:05.850Z,8.60
2019-04-10T20:06:12.029Z,8.40
2019-04-10T20:09:18.455Z,8.44
2019-04-10T20:12:24.501Z,8.40
2019-04-10T20:15:30.749Z,8.19
2019-04-10T20:18:37.002Z,8.21
2019-04-10T20:21:42.418Z,8.09
2019-04-10T20:24:47.786Z,8.05
2019-04-10T20:27:53.108Z,7.87
2019-04-10T20:30:59.426Z,7.89
2019-04-10T20:34:05.401Z,8.15
2019-04-10T20:37:13.021Z,8.04
2019-04-10T20:40:19.553Z,7.89
2019-04-10T20:43:24.984Z,7.94
2019-04-10T20:46:30.525Z,7.94
2019-04-10T20:49:36.453Z,7.60
2019-04-10T20:52:41.764Z,7.64
2019-04-10T20:55:47.937Z,7.30
2019-04-10T20:58:53.413Z,7.58
2019-04-10T21:01:59.832Z,7.82
2019-04-10T21:05:07.969Z,7.70
2019-04-10T21:08:12.336Z,7.29
2019-04-10T21:11:17.517Z,7.09
2019-04-10T21:14:23.320Z,7.35
2019-04-10T21:17:29.847Z,7.14
2019-04-10T21:20:34.994Z,7.26
2019-04-10T21:23:40.192Z,7.23
2019-04-10T21:26:46.447Z,7.15
2019-04-10T21:30:17.852Z,6.77
2019-04-10T21:33:30.759Z,6.75
2019-04-10T21:36:37.099Z,6.94
2019-04-10T21:39:43.780Z,6.80
2019-04-10T21:42:49.735Z,6.81
2019-04-10T21:45:55.381Z,6.45
2019-04-10T21:49:01.583Z,6.51
2019-04-10T21:52:07.760Z,6.50
2019-04-10T21:55:13.024Z,6.30
2019-04-10T21:58:18.059Z,5.94
2019-04-10T22:01:24.298Z,5.62
2019-04-10T22:04:31.047Z,5.44
2019-04-10T22:07:53.832Z,5.43
2019-04-10T22:10:59.037Z,5.31
2019-04-10T22:14:04.511Z,5.45
2019-04-10T22:17:10.750Z,5.35
2019-04-10T22:20:17.175Z,5.17
2019-04-10T22:23:22.455Z,5.16
2019-04-10T22:26:27.739Z,5.02
2019-04-10T22:29:34.746Z,4.95
2019-04-10T22:32:40.909Z,4.92
2019-04-10T22:35:46.323Z,4.87
2019-04-10T22:38:51.849Z,4.79
2019-04-10T22:41:56.960Z,4.77
2019-04-10T22:45:02.604Z,4.81
2019-04-10T22:48:08.967Z,4.88
2019-04-10T22:51:15.002Z,4.71
2019-04-10T22:54:20.171Z,4.53
2019-04-10T22:57:25.256Z,4.23
2019-04-10T23:00:32.609Z,4.03
2019-04-10T23:03:38.795Z,3.85
2019-04-10T23:06:45.003Z,3.66
2019-04-10T23:09:51.160Z,3.94
2019-04-10T23:13:01.422Z,3.62
2019-04-10T23:16:06.033Z,3.46
2019-04-10T23:19:12.227Z,3.51
2019-04-10T23:22:17.261Z,3.49
2019-04-10T23:25:22.529Z,3.70
2019-04-10T23:28:27.641Z,3.26
2019-04-10T23:31:33.952Z,3.24
2019-04-10T23:34:39.211Z,3.13
2019-04-10T23:37:44.639Z,3.13
2019-04-10T23:40:49.981Z,2.87
2019-04-10T23:43:56.095Z,2.84
2019-04-10T23:47:02.037Z,2.85
2019-04-10T23:50:08.132Z,2.72
2019-04-10T23:53:14.150Z,2.58
2019-04-10T23:56:19.840Z,2.61
2019-04-10T23:59:25.168Z,2.47
